• Join FlightAware (Why Join?)
  • Login
  • US Flag 
11:05PM EST


 

Airport Tracker/Info


-or-


 

Live Flight TrackerFlight Track Log ✈ SWA482 ✈ 03-May-2013 ✈ KLAS - KPHX

Flight Track Log - Related Links

Times and Time Zones

All times are in EDT time to prevent confusion due to time zone crossing. See the SWA482 flight status page for this flight to view local times or setup timezone preferences in your user account.

Time Position Orientation Groundspeed Altitude Reporting Facility
EDT Latitude Longitude Course Direction KTS MPH feet Rate Location/Type
07:24PM 36.0381 -115.2711 244° Southwest 245 282 5,800  Level Los Angeles Center
07:25PM 36.0081 -115.2836 199° South 253 291 6,900 2,400 Climbing Los Angeles Center
07:25PM 35.9658 -115.2975 195° South 283 326 8,300 2,880 Climbing Los Angeles Center
07:26PM 35.9319 -115.2853 164° South 276 318 9,900 2,580 Climbing Los Angeles Center
07:27PM 35.9014 -115.1861 111° Southeast 331 381 12,300 2,640 Climbing Los Angeles Center
07:28PM 35.8925 -115.0633 95° East 356 410 15,400 3,000 Climbing Los Angeles Center
07:29PM 35.8819 -114.9311 96° East 377 434 18,500 3,120 Climbing Los Angeles Center
07:30PM 35.8686 -114.7631 96° East 407 468 21,900 2,820 Climbing Los Angeles Center
07:31PM 35.8569 -114.6208 96° East 416 479 24,400 2,400 Climbing Los Angeles Center
07:32PM 35.8008 -114.4914 118° Southeast 425 489 26,900 2,220 Climbing Los Angeles Center
07:33PM 35.7342 -114.3681 124° Southeast 430 495 29,000 960 Climbing Los Angeles Center
07:34PM 35.6644 -114.2364 123° Southeast 432 497 29,000  Level Los Angeles Center
07:35PM 35.5992 -114.1119 123° Southeast 433 498 29,000  Level Los Angeles Center
07:36PM 35.5342 -113.9897 123° Southeast 430 495 29,000  Level Los Angeles Center
07:37PM 35.4653 -113.8617 123° Southeast 446 513 29,000  Level Los Angeles Center
07:38PM 35.3806 -113.7072 124° Southeast 456 525 29,000  Level Los Angeles Center
07:39PM 35.3106 -113.5792 124° Southeast 457 526 29,000  Level Los Angeles Center
07:40PM 35.2400 -113.4500 124° Southeast 459 528 29,000  Level Los Angeles Center
07:41PM 35.1694 -113.3214 124° Southeast 462 532 29,000  Level Los Angeles Center
07:42PM 35.0989 -113.1933 124° Southeast 462 532 29,000 -360 Level Albuquerque Center
07:43PM 35.0303 -113.0667 123° Southeast 459 528 28,400 -900 Descending Albuquerque Center
07:44PM 34.9453 -112.9144 124° Southeast 461 531 27,200 -1,080 Descending Albuquerque Center
07:45PM 34.8778 -112.7919 124° Southeast 448 516 26,200 -1,020 Descending Albuquerque Center
07:46PM 34.8092 -112.6706 125° Southeast 442 509 25,200 -600 Descending Albuquerque Center
07:47PM 34.7417 -112.5508 124° Southeast 436 502 25,000 -300 Descending Albuquerque Center
07:48PM 34.6558 -112.4533 137° Southeast 436 502 24,600 -1,260 Descending Albuquerque Center
07:49PM 34.5511 -112.3975 156° South 422 486 22,500 -2,220 Descending Albuquerque Center
07:50PM 34.4294 -112.3281 155° Southeast 411 473 20,100 -2,100 Descending Albuquerque Center
07:51PM 34.3331 -112.2736 155° Southeast 399 459 18,300 -1,860 Descending Albuquerque Center
07:52PM 34.2419 -112.2236 156° South 380 437 16,400 -1,800 Descending Albuquerque Center
07:53PM 34.1550 -112.1747 155° Southeast 351 404 14,700 -1,500 Descending Albuquerque Center
07:54PM 34.0686 -112.1367 160° South 337 388 13,400 -1,380 Descending Albuquerque Center
07:55PM 33.9839 -112.1478 186° South 310 357 11,900 -1,620 Descending Albuquerque Center
07:56PM 33.8836 -112.1600 186° South 304 350 10,100 -1,260 Descending Albuquerque Center
07:57PM 33.8064 -112.1775 191° South 287 330 9,400 -720 Descending Albuquerque Center
07:58PM 33.7372 -112.1917 190° South 256 295 8,700 -720 Descending Albuquerque Center
08:00PM 33.6717 -112.2053 190° South 243 280 8,000 -960 Descending Albuquerque Center
08:01PM 33.6047 -112.2111 184° South 242 278 6,800 -1,140 Descending Albuquerque Center
08:02PM 33.5397 -112.2139 182° South 235 270 5,700 -1,140 Descending Albuquerque Center
08:03PM 33.4761 -112.2167 182° South 230 265 4,500 -1,260 Descending Albuquerque Center
08:04PM 33.4417 -112.1589 126° Southeast 190 219 3,200 -1,080 Descending Albuquerque Center
08:05PM 33.4406 -112.1031 91° East 169 194 2,300 -840 Descending Albuquerque Center
08:06PM 33.4414 -112.0553 89° East 148 170 1,600 -600 Descending Albuquerque Center
08:07PM 33.4408 -112.0119 91° East 148 170 1,100 -540 Descending Albuquerque Center